createdAt,value
2018-07-20T00:01:53.757Z,48.10
2018-07-20T00:04:20.590Z,48.20
2018-07-20T00:06:47.428Z,48.20
2018-07-20T00:09:14.271Z,48.20
2018-07-20T00:11:41.122Z,48.20
2018-07-20T00:14:07.997Z,48.30
2018-07-20T00:16:34.728Z,48.30
2018-07-20T00:19:07.528Z,48.30
2018-07-20T00:21:34.332Z,48.40
2018-07-20T00:24:01.371Z,48.40
2018-07-20T00:26:28.170Z,48.40
2018-07-20T00:28:54.957Z,48.50
2018-07-20T00:31:21.774Z,48.50
2018-07-20T00:33:48.588Z,48.50
2018-07-20T00:36:15.400Z,48.50
2018-07-20T00:38:42.295Z,48.60
2018-07-20T00:41:09.012Z,48.50
2018-07-20T00:43:35.790Z,48.60
2018-07-20T00:46:02.572Z,48.60
2018-07-20T00:48:29.419Z,48.70
2018-07-20T00:50:57.786Z,48.70
2018-07-20T00:53:25.646Z,48.70
2018-07-20T00:55:56.845Z,48.70
2018-07-20T00:58:24.311Z,48.80
2018-07-20T01:00:51.074Z,48.80
2018-07-20T01:03:17.896Z,48.80
2018-07-20T01:05:44.584Z,48.90
2018-07-20T01:08:11.246Z,48.90
2018-07-20T01:10:37.985Z,49.20
2018-07-20T01:13:04.717Z,48.90
2018-07-20T01:15:31.465Z,48.90
2018-07-20T01:17:58.140Z,49.00
2018-07-20T01:20:24.853Z,49.70
2018-07-20T01:22:51.701Z,49.10
2018-07-20T01:25:18.625Z,49.10
2018-07-20T01:27:45.568Z,49.10
2018-07-20T01:30:12.356Z,49.20
2018-07-20T01:32:39.103Z,49.10
2018-07-20T01:35:05.895Z,49.20
2018-07-20T01:37:32.722Z,49.20
2018-07-20T01:39:59.512Z,49.20
2018-07-20T01:42:26.282Z,49.20
2018-07-20T01:44:53.139Z,49.30
2018-07-20T01:47:21.418Z,49.30
2018-07-20T01:49:48.350Z,49.30
2018-07-20T01:52:15.146Z,49.30
2018-07-20T01:54:41.939Z,49.40
2018-07-20T01:57:08.624Z,49.40
2018-07-20T01:59:35.416Z,49.40
2018-07-20T02:02:02.160Z,50.10
2018-07-20T02:04:28.920Z,49.40
2018-07-20T02:06:55.616Z,49.50
2018-07-20T02:09:22.431Z,49.50
2018-07-20T02:11:49.102Z,49.50
2018-07-20T02:14:15.804Z,49.50
2018-07-20T02:16:42.528Z,49.60
2018-07-20T02:19:09.238Z,49.60
2018-07-20T02:21:36.017Z,49.60
2018-07-20T02:24:02.741Z,49.70
2018-07-20T02:26:29.537Z,49.70
2018-07-20T02:28:56.274Z,49.60
2018-07-20T02:31:23.118Z,49.70
2018-07-20T02:33:49.962Z,49.70
2018-07-20T02:36:16.876Z,49.80
2018-07-20T02:41:10.954Z,49.80
2018-07-20T02:43:37.784Z,49.80
2018-07-20T02:48:31.683Z,49.80
2018-07-20T02:50:58.583Z,49.80
2018-07-20T02:53:25.400Z,49.90
2018-07-20T02:55:52.217Z,49.90
2018-07-20T02:58:19.021Z,49.90
2018-07-20T03:00:45.813Z,49.90
2018-07-20T03:03:12.936Z,50.00
2018-07-20T03:05:40.399Z,50.00
2018-07-20T03:08:07.253Z,50.00
2018-07-20T03:10:34.264Z,49.90
2018-07-20T03:13:01.257Z,50.00
2018-07-20T03:17:55.866Z,50.10
2018-07-20T03:20:22.695Z,50.10
2018-07-20T03:22:49.639Z,50.10
2018-07-20T03:25:16.387Z,50.10
2018-07-20T03:27:43.139Z,50.30
2018-07-20T03:30:09.944Z,50.10
2018-07-20T03:32:36.750Z,50.20
2018-07-20T03:35:03.500Z,50.10
2018-07-20T03:37:30.253Z,50.20
2018-07-20T03:39:57.369Z,50.20
2018-07-20T03:42:24.129Z,50.30
2018-07-20T03:44:51.037Z,50.30
2018-07-20T03:47:17.977Z,50.30
2018-07-20T03:49:44.825Z,50.30
2018-07-20T03:52:11.577Z,50.30
2018-07-20T03:54:38.395Z,50.30
2018-07-20T03:57:05.204Z,50.40
2018-07-20T03:59:31.956Z,50.40
2018-07-20T04:01:58.697Z,50.40
2018-07-20T04:04:25.450Z,50.40
2018-07-20T04:06:52.305Z,50.40
2018-07-20T04:09:19.045Z,50.50
2018-07-20T04:11:45.790Z,50.40
2018-07-20T04:14:12.520Z,50.50
2018-07-20T04:16:39.416Z,50.50
2018-07-20T04:21:33.526Z,50.60
2018-07-20T04:24:00.302Z,50.50
2018-07-20T04:26:27.016Z,50.50
2018-07-20T04:28:53.832Z,50.50
2018-07-20T04:31:20.686Z,50.90
2018-07-20T04:33:47.536Z,50.60
2018-07-20T04:36:14.275Z,50.60
2018-07-20T04:38:41.008Z,50.60
2018-07-20T04:41:07.764Z,50.70
2018-07-20T04:46:02.393Z,50.70
2018-07-20T04:48:29.208Z,50.70
2018-07-20T04:50:56.024Z,50.70
2018-07-20T04:53:22.910Z,50.80
2018-07-20T04:55:49.793Z,50.90
2018-07-20T05:00:43.771Z,50.90
2018-07-20T05:03:10.513Z,50.80
2018-07-20T05:05:37.547Z,50.90
2018-07-20T05:08:04.319Z,50.90
2018-07-20T05:10:31.483Z,50.90
2018-07-20T05:12:58.227Z,50.90
2018-07-20T05:15:25.109Z,50.90
2018-07-20T05:17:51.835Z,51.00
2018-07-20T05:20:18.591Z,51.00
2018-07-20T05:27:40.309Z,51.10
2018-07-20T05:30:07.119Z,51.80
2018-07-20T05:32:34.048Z,51.00
2018-07-20T05:35:01.016Z,51.20
2018-07-20T05:37:27.742Z,51.20
2018-07-20T05:42:22.673Z,51.30
2018-07-20T05:44:49.516Z,51.30
2018-07-20T05:47:17.192Z,51.30
2018-07-20T05:49:43.927Z,51.30
2018-07-20T05:52:10.873Z,51.40
2018-07-20T05:54:38.525Z,51.40
2018-07-20T05:57:05.602Z,51.40
2018-07-20T05:59:33.123Z,51.30
2018-07-20T06:02:00.013Z,51.40
2018-07-20T06:04:26.757Z,51.50
2018-07-20T06:06:54.229Z,51.50
2018-07-20T06:09:20.986Z,51.50
2018-07-20T06:11:47.704Z,51.50
2018-07-20T06:14:14.430Z,51.50
2018-07-20T06:16:41.396Z,51.50
2018-07-20T06:19:08.582Z,51.60
2018-07-20T06:21:36.140Z,51.60
2018-07-20T06:24:03.000Z,51.60
2018-07-20T06:26:29.868Z,52.20
2018-07-20T06:28:56.927Z,51.60
2018-07-20T06:31:23.832Z,51.60
2018-07-20T06:33:50.644Z,51.60
2018-07-20T06:36:17.565Z,51.60
2018-07-20T06:38:44.380Z,51.70
2018-07-20T06:41:11.245Z,51.60
2018-07-20T06:43:38.083Z,51.70
2018-07-20T06:46:05.761Z,51.70
2018-07-20T06:48:32.587Z,51.80
2018-07-20T06:50:59.633Z,51.80
2018-07-20T06:53:27.159Z,51.80
2018-07-20T06:55:54.207Z,51.80
2018-07-20T06:58:21.207Z,52.10
2018-07-20T07:00:48.148Z,51.90
2018-07-20T07:03:14.893Z,51.90
2018-07-20T07:05:41.705Z,52.00
2018-07-20T07:10:36.006Z,52.70
2018-07-20T07:13:02.885Z,52.10
2018-07-20T07:15:29.861Z,52.40
2018-07-20T07:17:56.788Z,52.20
2018-07-20T07:20:23.588Z,52.10
2018-07-20T07:22:50.433Z,52.30
2018-07-20T07:25:17.338Z,52.30
2018-07-20T07:27:45.187Z,52.40
2018-07-20T07:30:12.105Z,52.40
2018-07-20T07:32:38.868Z,52.50
2018-07-20T07:35:05.730Z,52.60
2018-07-20T07:37:32.760Z,52.60
2018-07-20T07:39:59.562Z,52.70
2018-07-20T07:42:26.539Z,52.70
2018-07-20T07:44:53.294Z,52.80
2018-07-20T07:47:20.109Z,52.90
2018-07-20T07:49:47.002Z,52.90
2018-07-20T07:52:15.024Z,53.00
2018-07-20T07:54:41.731Z,53.00
2018-07-20T07:57:08.931Z,53.00
2018-07-20T07:59:35.696Z,53.00
2018-07-20T08:02:02.644Z,53.10
2018-07-20T08:04:29.735Z,53.10
2018-07-20T08:06:56.808Z,53.10
2018-07-20T08:09:23.647Z,53.20
2018-07-20T08:11:50.470Z,53.20
2018-07-20T08:14:17.198Z,53.20
2018-07-20T08:16:44.161Z,53.20
2018-07-20T08:19:10.940Z,53.20
2018-07-20T08:21:37.800Z,53.20
2018-07-20T08:24:04.818Z,53.90
2018-07-20T08:26:31.914Z,53.20
2018-07-20T08:28:58.795Z,53.30
2018-07-20T08:31:25.826Z,53.30
2018-07-20T08:33:54.234Z,53.30
2018-07-20T08:36:22.811Z,53.30
2018-07-20T08:38:49.604Z,53.40
2018-07-20T08:41:17.637Z,53.40
2018-07-20T08:43:45.346Z,53.40
2018-07-20T08:46:12.194Z,53.40
2018-07-20T08:48:38.957Z,53.40
2018-07-20T08:51:07.359Z,53.40
2018-07-20T08:53:34.443Z,54.00
2018-07-20T08:56:01.524Z,53.40
2018-07-20T08:58:28.787Z,53.40
2018-07-20T09:03:23.838Z,53.40
2018-07-20T09:05:50.886Z,53.40
2018-07-20T09:08:17.719Z,54.00
2018-07-20T09:10:44.650Z,53.40
2018-07-20T09:13:11.668Z,53.30
2018-07-20T09:15:39.140Z,53.30
2018-07-20T09:18:05.991Z,53.20
2018-07-20T09:20:33.285Z,53.30
2018-07-20T09:23:00.857Z,53.20
2018-07-20T09:25:27.663Z,53.20
2018-07-20T09:27:54.753Z,53.10
2018-07-20T09:32:50.082Z,53.10
2018-07-20T09:35:16.975Z,53.00
2018-07-20T09:37:44.022Z,53.10
2018-07-20T09:40:10.831Z,53.00
2018-07-20T09:42:37.775Z,52.90
2018-07-20T09:45:04.667Z,53.20
2018-07-20T09:47:31.510Z,52.80
2018-07-20T09:49:58.350Z,52.80
2018-07-20T09:52:25.507Z,52.80
2018-07-20T09:54:52.768Z,52.70
2018-07-20T09:57:19.471Z,52.60
2018-07-20T09:59:46.955Z,52.60
2018-07-20T10:02:13.797Z,52.60
2018-07-20T10:04:40.642Z,52.50
2018-07-20T10:09:34.850Z,52.40
2018-07-20T10:12:01.722Z,52.40
2018-07-20T10:14:29.157Z,52.30
2018-07-20T10:16:56.099Z,52.20
2018-07-20T10:19:23.068Z,52.20
2018-07-20T10:21:49.816Z,52.10
2018-07-20T10:24:17.210Z,52.10
2018-07-20T10:26:44.083Z,52.10
2018-07-20T10:29:10.868Z,52.00
2018-07-20T10:31:37.850Z,51.90
2018-07-20T10:34:04.728Z,51.90
2018-07-20T10:36:31.575Z,51.80
2018-07-20T10:38:58.576Z,51.80
2018-07-20T10:41:25.328Z,51.70
2018-07-20T10:43:52.207Z,51.70
2018-07-20T10:46:18.959Z,51.60
2018-07-20T10:48:45.733Z,51.60
2018-07-20T10:51:12.637Z,51.50
2018-07-20T10:53:39.550Z,51.50
2018-07-20T10:56:06.431Z,51.40
2018-07-20T10:58:33.287Z,51.40
2018-07-20T11:01:00.110Z,51.40
2018-07-20T11:03:26.962Z,51.30
2018-07-20T11:05:53.683Z,51.30
2018-07-20T11:10:48.285Z,51.20
2018-07-20T11:13:15.630Z,51.10
2018-07-20T11:15:43.099Z,51.10
2018-07-20T11:18:09.977Z,51.00
2018-07-20T11:20:36.936Z,51.00
2018-07-20T11:23:03.689Z,51.00
2018-07-20T11:25:30.396Z,50.90
2018-07-20T11:27:58.285Z,50.90
2018-07-20T11:30:25.501Z,50.80
2018-07-20T11:35:19.804Z,50.80
2018-07-20T11:37:46.582Z,50.70
2018-07-20T11:40:13.628Z,50.70
2018-07-20T11:42:40.424Z,50.60
2018-07-20T11:45:07.184Z,50.60
2018-07-20T11:50:01.654Z,50.60
2018-07-20T11:52:28.434Z,50.60
2018-07-20T11:54:55.164Z,50.50
2018-07-20T11:57:22.056Z,50.50
2018-07-20T11:59:48.872Z,50.40
2018-07-20T12:02:15.648Z,50.40
2018-07-20T12:04:42.589Z,50.40
2018-07-20T12:07:09.406Z,50.10
2018-07-20T12:09:36.983Z,50.30
2018-07-20T12:12:04.409Z,50.20
2018-07-20T12:14:31.602Z,50.20
2018-07-20T12:16:58.420Z,50.30
2018-07-20T12:19:25.216Z,50.20
2018-07-20T12:21:52.170Z,50.20
2018-07-20T12:24:19.880Z,50.20
2018-07-20T12:26:46.655Z,50.20
2018-07-20T12:29:13.430Z,50.20
2018-07-20T12:31:40.163Z,50.10
2018-07-20T12:34:07.117Z,50.20
2018-07-20T12:36:33.983Z,50.10
2018-07-20T12:39:00.760Z,50.00
2018-07-20T12:41:27.497Z,50.10
2018-07-20T12:43:54.223Z,50.10
2018-07-20T12:46:21.059Z,50.00
2018-07-20T12:48:47.883Z,50.00
2018-07-20T12:51:15.056Z,50.00
2018-07-20T12:53:41.729Z,50.00
2018-07-20T12:56:08.493Z,50.00
2018-07-20T12:58:35.342Z,50.00
2018-07-20T13:01:02.066Z,50.00
2018-07-20T13:03:28.901Z,49.90
2018-07-20T13:05:55.749Z,49.90
2018-07-20T13:08:23.111Z,49.90
2018-07-20T13:10:49.817Z,49.90
2018-07-20T13:13:16.694Z,49.90
2018-07-20T13:15:43.551Z,49.90
2018-07-20T13:18:11.060Z,49.90
2018-07-20T13:20:37.744Z,49.90
2018-07-20T13:23:04.648Z,49.80
2018-07-20T13:25:31.638Z,49.80
2018-07-20T13:27:58.474Z,49.80
2018-07-20T13:30:25.289Z,49.80
2018-07-20T13:32:52.153Z,50.40
2018-07-20T13:35:19.046Z,49.80
2018-07-20T13:37:45.857Z,49.80
2018-07-20T13:40:12.710Z,49.70
2018-07-20T13:42:39.540Z,49.70
2018-07-20T13:45:06.801Z,49.70
2018-07-20T13:50:00.956Z,49.70
2018-07-20T13:52:28.501Z,49.70
2018-07-20T13:54:55.360Z,49.70
2018-07-20T13:57:22.864Z,49.70
2018-07-20T14:02:17.032Z,49.80
2018-07-20T14:04:43.892Z,49.70
2018-07-20T14:07:10.692Z,49.70
2018-07-20T14:09:37.609Z,49.70
2018-07-20T14:12:04.770Z,49.80
2018-07-20T14:14:31.528Z,49.70
2018-07-20T14:16:58.302Z,49.70
2018-07-20T14:19:25.202Z,49.60
2018-07-20T14:21:52.234Z,49.70
2018-07-20T14:24:19.770Z,49.70
2018-07-20T14:26:46.660Z,49.70
2018-07-20T14:29:13.590Z,49.70
2018-07-20T14:31:40.451Z,49.70
2018-07-20T14:34:07.106Z,49.70
2018-07-20T14:36:33.815Z,49.70
2018-07-20T14:39:03.118Z,49.70
2018-07-20T14:41:30.426Z,49.70
2018-07-20T14:43:57.225Z,49.80
2018-07-20T14:46:24.233Z,49.80
2018-07-20T14:48:51.211Z,49.70
2018-07-20T14:51:18.140Z,49.70
2018-07-20T14:53:45.020Z,49.70
2018-07-20T14:56:11.823Z,49.70
2018-07-20T14:58:39.515Z,49.70
2018-07-20T15:01:06.574Z,49.70
2018-07-20T15:03:33.513Z,49.60
2018-07-20T15:06:00.311Z,49.60
2018-07-20T15:08:27.309Z,49.60
2018-07-20T15:10:54.287Z,49.60
2018-07-20T15:13:21.261Z,49.60
2018-07-20T15:15:48.249Z,49.60
2018-07-20T15:18:15.084Z,49.60
2018-07-20T15:20:41.992Z,49.60
2018-07-20T15:23:08.960Z,49.60
2018-07-20T15:25:35.734Z,49.60
2018-07-20T15:28:02.606Z,49.60
2018-07-20T15:30:30.000Z,49.60
2018-07-20T15:32:56.798Z,49.90
2018-07-20T15:35:23.941Z,49.50
2018-07-20T15:37:52.204Z,49.50
2018-07-20T15:40:19.056Z,49.50
2018-07-20T15:42:46.189Z,49.50
2018-07-20T15:45:13.097Z,49.50
2018-07-20T15:47:39.988Z,49.40
2018-07-20T15:50:07.812Z,49.30
2018-07-20T15:55:01.881Z,49.40
2018-07-20T15:57:29.436Z,49.40
2018-07-20T15:59:56.550Z,49.40
2018-07-20T16:02:23.851Z,49.10
2018-07-20T16:04:50.784Z,49.30
2018-07-20T16:07:17.726Z,49.30
2018-07-20T16:09:44.848Z,49.30
2018-07-20T16:12:11.916Z,49.30
2018-07-20T16:14:38.748Z,49.20
2018-07-20T16:17:06.347Z,49.20
2018-07-20T16:19:33.481Z,49.20
2018-07-20T16:22:00.395Z,49.20
2018-07-20T16:24:27.291Z,49.20
2018-07-20T16:26:54.080Z,49.30
2018-07-20T16:29:20.935Z,49.30
2018-07-20T16:31:47.813Z,49.20
2018-07-20T16:34:14.854Z,49.10
2018-07-20T16:36:41.643Z,49.20
2018-07-20T16:39:09.095Z,49.20
2018-07-20T16:41:36.409Z,49.20
2018-07-20T16:44:03.275Z,49.10
2018-07-20T16:46:30.307Z,49.10
2018-07-20T16:48:57.186Z,49.10
2018-07-20T16:51:24.002Z,49.10
2018-07-20T16:53:50.975Z,49.10
2018-07-20T16:56:17.792Z,49.10
2018-07-20T16:58:45.942Z,49.00
2018-07-20T17:01:12.964Z,49.10
2018-07-20T17:03:39.997Z,49.10
2018-07-20T17:06:07.181Z,49.80
2018-07-20T17:08:34.086Z,49.20
2018-07-20T17:13:28.267Z,49.20
2018-07-20T17:15:55.291Z,49.20
2018-07-20T17:20:49.638Z,49.20
2018-07-20T17:23:17.271Z,49.10
2018-07-20T17:25:44.231Z,49.20
2018-07-20T17:28:10.974Z,49.10
2018-07-20T17:30:37.918Z,49.20
2018-07-20T17:33:04.762Z,49.20
2018-07-20T17:35:31.637Z,49.20
2018-07-20T17:37:58.618Z,49.20
2018-07-20T17:40:25.583Z,49.20
2018-07-20T17:42:52.335Z,49.20
2018-07-20T17:45:19.096Z,49.20
2018-07-20T17:47:45.935Z,49.20
2018-07-20T17:50:12.889Z,49.20
2018-07-20T17:52:40.849Z,49.20
2018-07-20T17:55:07.655Z,49.20
2018-07-20T17:57:34.493Z,49.20
2018-07-20T18:00:01.379Z,49.20
2018-07-20T18:02:28.222Z,49.20
2018-07-20T18:04:55.190Z,49.20
2018-07-20T18:07:22.512Z,49.20
2018-07-20T18:12:16.978Z,49.90
2018-07-20T18:17:14.538Z,50.00
2018-07-20T18:19:42.641Z,49.30
2018-07-20T18:22:09.544Z,49.30
2018-07-20T18:24:37.092Z,49.30
2018-07-20T18:27:04.070Z,49.40
2018-07-20T18:29:30.946Z,49.30
2018-07-20T18:31:57.790Z,49.40
2018-07-20T18:34:24.789Z,49.90
2018-07-20T18:36:51.503Z,49.40
2018-07-20T18:39:18.997Z,49.50
2018-07-20T18:41:46.139Z,49.50
2018-07-20T18:44:14.746Z,49.50
2018-07-20T18:46:41.616Z,49.50
2018-07-20T18:49:08.467Z,49.50
2018-07-20T18:51:35.246Z,49.60
2018-07-20T18:54:02.213Z,49.60
2018-07-20T18:56:29.835Z,49.60
2018-07-20T18:58:56.600Z,49.60
2018-07-20T19:01:23.431Z,49.60
2018-07-20T19:03:50.357Z,49.70
2018-07-20T19:06:17.220Z,50.30
2018-07-20T19:08:44.091Z,49.60
2018-07-20T19:11:11.560Z,49.80
2018-07-20T19:13:38.681Z,49.70
2018-07-20T19:16:05.650Z,49.70
2018-07-20T19:18:32.684Z,49.70
2018-07-20T19:20:59.632Z,49.80
2018-07-20T19:23:26.656Z,49.80
2018-07-20T19:25:53.440Z,49.80
2018-07-20T19:28:20.453Z,49.80
2018-07-20T19:30:47.304Z,49.90
2018-07-20T19:33:14.354Z,49.80
2018-07-20T19:35:41.297Z,49.90
2018-07-20T19:38:08.078Z,50.00
2018-07-20T19:40:35.017Z,50.10
2018-07-20T19:43:03.215Z,50.00
2018-07-20T19:45:30.682Z,50.00
2018-07-20T19:47:57.379Z,50.00
2018-07-20T19:50:24.166Z,49.90
2018-07-20T19:52:51.330Z,50.00
2018-07-20T19:55:19.768Z,50.10
2018-07-20T19:57:46.652Z,50.00
2018-07-20T20:00:13.473Z,50.00
2018-07-20T20:02:40.353Z,50.10
2018-07-20T20:05:07.278Z,50.10
2018-07-20T20:07:34.234Z,50.10
2018-07-20T20:10:01.169Z,50.20
2018-07-20T20:12:29.160Z,50.20
2018-07-20T20:14:57.318Z,50.10
2018-07-20T20:17:24.500Z,50.20
2018-07-20T20:19:51.400Z,50.20
2018-07-20T20:22:18.817Z,50.40
2018-07-20T20:24:45.772Z,50.20
2018-07-20T20:27:12.576Z,50.30
2018-07-20T20:29:39.358Z,50.90
2018-07-20T20:32:06.131Z,50.30
2018-07-20T20:34:33.053Z,50.30
2018-07-20T20:39:27.125Z,49.90
2018-07-20T20:41:53.899Z,50.40
2018-07-20T20:44:20.651Z,50.40
2018-07-20T20:49:14.960Z,50.50
2018-07-20T20:51:42.428Z,50.40
2018-07-20T20:54:09.427Z,50.50
2018-07-20T20:56:36.204Z,50.50
2018-07-20T20:59:03.090Z,50.50
2018-07-20T21:01:29.903Z,50.50
2018-07-20T21:03:57.605Z,50.50
2018-07-20T21:06:25.217Z,50.60
2018-07-20T21:08:51.921Z,50.50
2018-07-20T21:11:19.613Z,50.60
2018-07-20T21:13:46.455Z,50.70
2018-07-20T21:18:40.789Z,50.70
2018-07-20T21:21:07.844Z,50.70
2018-07-20T21:23:34.832Z,50.70
2018-07-20T21:26:01.736Z,50.70
2018-07-20T21:28:28.682Z,50.70
2018-07-20T21:30:55.940Z,50.70
2018-07-20T21:33:22.742Z,50.70
2018-07-20T21:40:44.420Z,50.80
2018-07-20T21:43:11.458Z,50.80
2018-07-20T21:45:38.354Z,51.30
2018-07-20T21:48:05.045Z,50.90
2018-07-20T21:50:31.923Z,50.90
2018-07-20T21:52:58.918Z,50.90
2018-07-20T21:55:26.218Z,50.90
2018-07-20T21:57:53.111Z,51.50
2018-07-20T22:00:20.425Z,51.00
2018-07-20T22:02:48.179Z,51.00
2018-07-20T22:05:15.093Z,51.00
2018-07-20T22:07:41.868Z,51.10
2018-07-20T22:12:36.458Z,51.00
2018-07-20T22:15:03.210Z,51.20
2018-07-20T22:17:30.662Z,51.10
2018-07-20T22:19:57.734Z,51.20
2018-07-20T22:22:25.145Z,51.20
2018-07-20T22:24:51.988Z,51.20
2018-07-20T22:27:19.195Z,51.20
2018-07-20T22:29:46.272Z,51.20
2018-07-20T22:32:13.030Z,51.30
2018-07-20T22:34:39.975Z,51.30
2018-07-20T22:39:34.121Z,51.30
2018-07-20T22:42:00.968Z,51.30
2018-07-20T22:44:27.849Z,51.40
2018-07-20T22:46:55.483Z,51.40
2018-07-20T22:49:22.223Z,51.40
2018-07-20T22:51:49.047Z,51.40
2018-07-20T22:54:16.025Z,51.50
2018-07-20T22:56:42.869Z,51.50
2018-07-20T22:59:09.879Z,51.60
2018-07-20T23:01:37.251Z,51.60
2018-07-20T23:04:04.204Z,51.60
2018-07-20T23:08:58.528Z,51.70
2018-07-20T23:11:25.998Z,51.70
2018-07-20T23:13:52.773Z,51.70
2018-07-20T23:16:20.084Z,51.70
2018-07-20T23:18:46.745Z,51.70
2018-07-20T23:21:13.881Z,51.70
2018-07-20T23:23:40.691Z,51.70
2018-07-20T23:26:07.442Z,51.80
2018-07-20T23:28:34.296Z,51.90
2018-07-20T23:31:01.003Z,51.80
2018-07-20T23:33:27.954Z,51.90
2018-07-20T23:35:54.669Z,51.90
2018-07-20T23:38:22.758Z,52.10
2018-07-20T23:40:49.782Z,52.00
2018-07-20T23:43:16.562Z,52.00
2018-07-20T23:45:44.019Z,52.00
2018-07-20T23:48:11.070Z,52.00
2018-07-20T23:50:38.024Z,52.10
2018-07-20T23:53:04.874Z,52.80
2018-07-20T23:57:59.141Z,52.20
